Conchas Dam, NM (88416)

1:23 PM MDT on July 11, 2014 (GMT -0600)
Tucumcari Municipal (KTCC) Elev 4065 ft | 35.18 °N, 103.60 °W | Change Station

Current weather conditions updated 30 minutes ago

Clear
Clear
90 °F
Feels Like 90 °F
N
12
Wind Variable Wind from South
Gusts 20 mph

Today is forecast to be Cooler than yesterday.

Today
High -- | Low -- °F
--% Chance of Precip.
Yesterday
High -- | Low -- °F
Precip. -- in
5:50 AM 8:12 PM
Waxing Gibbous, 99% visible
Pressure 29.89 in
Visibility 10.0 miles
Clouds Clear
Dew Point 50 °F
Humidity 25%
Rainfall 0.00 in
Snow Depth Not available.
UV 13 out of 12
Pollen 3.90 out of 12
Air Quality Not available.
Flu Activity Sporadic
METAR KTCC 111853Z AUTO 18010G17KT 10SM CLR 32/10 A3010 RMK AO2 SLP120 T03220100

More Conditions Fewer Conditions

Pressure 29.89 in
Visibility 10.0 miles
Clouds Clear
Dew Point 50 °F
Humidity 25%
Rainfall 0.00 in
Snow Depth Not available.
UV 13 out of 12
Pollen 3.90 out of 12
Air Quality Not available.
Flu Activity Sporadic
METAR KTCC 111853Z AUTO 18010G17KT 10SM CLR 32/10 A3010 RMK AO2 SLP120 T03220100

More Conditions Fewer Conditions

10-Day Weather Forecast

Almanac

Astronomy

Jul. 11, 2014 Rise Set
Actual Time 5:50 AM MDT 8:12 PM MDT
Civil Twilight 5:20 AM MDT 8:42 PM MDT
Nautical Twilight 4:44 AM MDT 9:18 PM MDT
Astronomical Twilight 4:05 AM MDT 9:57 PM MDT
Moon 7:28 PM MDT 5:02 AM MDT
Length of Visible Light 15h 21m
Length of Day
14h 22m
Tomorrow will be 0m 58s shorter.
Waxing Gibbous, 99% of the Moon is Illuminated
Today
Waxing Gibbous
Jul 12
Full
Jul 18
Last Quarter
Jul 26
New
Aug 3
First Quarter

Today's Extremes

State Highs State Lows

Community

WunderPhotos

Upload Photos

1,732,534 photos uploaded!

WunderBlogs® & News

Nearby

Snow Depth

Station Depth Elevation
Santa Fe 0 in 11445 ft
Red River Pass #2 0 in 9850 ft
North Costilla 1 in 10600 ft
Sierra Blanca 0 in 10280 ft
Silver Creek Divide 0 in 9000 ft

Earthquake Activity

City Distance Mag. Time & Date
No recent earthquake activity has been reported nearby.
Minimum magnitude displayed is 2.5.

Coastal Water Temperatures

Place Temperature
No Stations Reporting

Nearby Weather Stations

Station Location Temp. Heat Index Dew Point Humidity Wind Precip. Elev Updated Type
MesoWest Tucumcari ASC , Tucumcari, NM 86 °F 84 °F 51 °F 30% South  at  12 mph 0.00 in / hr 4078 ft 12:00 PM MDT MADIS

Show More Stations Show Fewer Stations